Time;durP1;ratioP1;P1;durP2;ratioP2;P2;SDS_P1;SDS_P2;PMS_P1;PMS_P2;Temp;Humidity;BMP_temperature;BMP_pressure;BME280_temperature;BME280_humidity;BME280_pressure;Samples;Min_cycle;Max_cycle;Signal;HPM_P1;HPM_P2
2022/05/29 00:01:35;;;;;;;16.08;4.50;;;;;;;9.32;100.00;101225.81;10259944;28;20451;-70
2022/05/29 00:06:39;;;;;;;18.63;4.45;;;;;;;9.39;100.00;101215.34;10256192;28;20068;-70
2022/05/29 00:11:36;;;;;;;22.52;4.53;;;;;;;9.43;100.00;101199.19;10260062;28;20041;-70
2022/05/29 00:16:32;;;;;;;26.85;4.57;;;;;;;9.46;100.00;101207.56;10262642;28;20064;-70
2022/05/29 00:21:33;;;;;;;18.15;3.97;;;;;;;9.45;100.00;101203.25;10250582;28;20049;-70
2022/05/29 00:26:29;;;;;;;23.45;5.03;;;;;;;9.44;100.00;101201.59;10254101;28;20068;-69
2022/05/29 00:31:26;;;;;;;19.25;4.80;;;;;;;9.49;100.00;101192.53;10246539;28;20037;-70
2022/05/29 00:36:22;;;;;;;20.92;5.03;;;;;;;9.50;100.00;101193.34;10257130;28;20577;-70
2022/05/29 00:41:34;;;;;;;21.38;4.93;;;;;;;9.51;100.00;101186.78;10251067;28;20478;-70
2022/05/29 00:46:32;;;;;;;21.95;5.05;;;;;;;9.63;100.00;101192.56;10251157;28;20098;-70
2022/05/29 00:51:29;;;;;;;18.25;4.18;;;;;;;9.60;100.00;101187.72;10253360;28;20041;-70
2022/05/29 00:56:25;;;;;;;19.98;4.75;;;;;;;9.57;100.00;101182.84;10257605;28;20098;-70
2022/05/29 01:01:22;;;;;;;17.23;4.13;;;;;;;9.59;100.00;101169.72;10249032;28;20073;-70
2022/05/29 01:06:18;;;;;;;18.27;4.68;;;;;;;9.59;100.00;101164.25;10258453;28;20071;-70
2022/05/29 01:11:23;;;;;;;25.08;4.40;;;;;;;9.48;100.00;101164.41;10266595;28;20056;-70
2022/05/29 01:16:34;;;;;;;24.60;4.85;;;;;;;9.46;100.00;101163.91;10251090;28;20076;-69
2022/05/29 01:21:58;;;;;;;23.77;5.38;;;;;;;9.50;100.00;101160.59;10264876;28;20037;-69
2022/05/29 01:27:18;;;;;;;18.20;4.10;;;;;;;9.56;100.00;101156.66;10260467;28;20102;-70
2022/05/29 01:32:23;;;;;;;19.17;4.47;;;;;;;9.61;100.00;101151.94;10259120;28;20045;-69
2022/05/29 01:37:28;;;;;;;15.27;3.78;;;;;;;9.47;100.00;101162.00;10261042;28;20431;-70
2022/05/29 01:42:30;;;;;;;21.75;4.32;;;;;;;9.59;100.00;101158.81;10260019;28;20068;-70
2022/05/29 01:47:52;;;;;;;15.20;3.92;;;;;;;9.54;100.00;101151.50;10265456;28;20053;-70
2022/05/29 01:52:56;;;;;;;23.40;6.32;;;;;;;9.53;100.00;101151.81;10265646;28;20152;-70
2022/05/29 01:58:07;;;;;;;13.18;3.08;;;;;;;9.55;100.00;101135.94;10269760;28;20518;-70
2022/05/29 02:03:26;;;;;;;18.27;4.05;;;;;;;9.60;100.00;101144.03;10262013;28;20096;-71
2022/05/29 02:08:48;;;;;;;17.70;3.65;;;;;;;9.63;100.00;101143.41;10266939;28;20083;-71
2022/05/29 02:13:48;;;;;;;15.68;3.33;;;;;;;9.71;100.00;101134.53;10257883;28;20559;-70
2022/05/29 02:19:17;;;;;;;19.95;3.60;;;;;;;9.75;100.00;101124.63;10262689;28;20897;-70
2022/05/29 02:24:26;;;;;;;19.33;3.53;;;;;;;9.72;100.00;101130.69;10261879;28;20068;-70
2022/05/29 02:29:22;;;;;;;20.17;4.35;;;;;;;9.76;100.00;101120.78;10266289;28;20136;-70
2022/05/29 02:34:41;;;;;;;22.35;4.40;;;;;;;9.59;100.00;101115.13;10266016;28;20069;-72
2022/05/29 02:40:01;;;;;;;16.35;3.17;;;;;;;9.72;100.00;101114.31;10262308;28;20141;-66
2022/05/29 02:45:00;;;;;;;20.00;4.55;;;;;;;9.63;100.00;101105.19;10259740;28;20046;-65
2022/05/29 02:50:11;;;;;;;16.13;3.22;;;;;;;9.72;100.00;101097.91;10257086;28;20079;-65
2022/05/29 02:55:07;;;;;;;21.50;3.80;;;;;;;9.69;100.00;101099.34;10253812;28;20135;-65
2022/05/29 03:00:11;;;;;;;27.10;4.82;;;;;;;9.71;100.00;101100.97;10259779;28;20080;-65
2022/05/29 03:05:33;;;;;;;18.67;3.75;;;;;;;9.61;100.00;101091.06;10258790;28;20045;-65
2022/05/29 03:10:39;;;;;;;19.10;3.67;;;;;;;9.64;100.00;101087.72;10257519;28;20049;-65
2022/05/29 03:16:17;;;;;;;23.40;3.92;;;;;;;9.66;100.00;101090.97;10266504;28;20064;-65
2022/05/29 03:21:16;;;;;;;18.05;3.75;;;;;;;9.69;100.00;101082.94;10216026;28;20419;-65
2022/05/29 03:26:23;;;;;;;15.13;4.13;;;;;;;9.65;100.00;101087.44;10261437;28;20400;-65
2022/05/29 03:31:25;;;;;;;18.95;4.78;;;;;;;9.68;100.00;101088.75;10255159;28;20503;-67
2022/05/29 03:36:25;;;;;;;16.23;3.60;;;;;;;9.64;100.00;101085.00;10258909;28;20044;-67
2022/05/29 03:41:33;;;;;;;20.10;3.63;;;;;;;9.59;100.00;101090.56;10254495;28;20048;-66
2022/05/29 03:46:30;;;;;;;18.02;3.65;;;;;;;9.62;100.00;101092.66;10254888;28;20049;-67
2022/05/29 03:51:26;;;;;;;23.05;4.18;;;;;;;9.61;100.00;101085.59;10260455;28;20079;-67
2022/05/29 03:56:23;;;;;;;16.27;3.60;;;;;;;9.62;100.00;101081.75;10261793;28;20132;-66
2022/05/29 04:01:23;;;;;;;23.77;3.85;;;;;;;9.64;100.00;101079.53;10260447;28;20061;-67
2022/05/29 04:06:21;;;;;;;18.52;3.83;;;;;;;9.58;100.00;101083.44;10267608;28;20695;-67
2022/05/29 04:16:33;;;;;;;17.38;4.28;;;;;;;9.66;100.00;101077.31;10251666;28;20041;-66
2022/05/29 04:21:30;;;;;;;20.25;4.00;;;;;;;9.63;100.00;101081.44;10254154;28;20063;-65
2022/05/29 04:26:27;;;;;;;22.60;4.22;;;;;;;9.65;100.00;101081.13;10253805;28;20575;-65
2022/05/29 04:31:23;;;;;;;15.15;4.35;;;;;;;9.66;100.00;101085.50;10256700;28;20417;-66
2022/05/29 04:36:20;;;;;;;23.52;4.43;;;;;;;9.56;100.00;101074.75;10253625;28;20079;-65
2022/05/29 04:41:19;;;;;;;25.83;5.72;;;;;;;9.60;100.00;101067.59;10250168;28;20148;-66
2022/05/29 04:46:16;;;;;;;21.15;4.63;;;;;;;9.58;100.00;101069.81;10242789;28;20076;-65
2022/05/29 04:51:12;;;;;;;24.20;4.55;;;;;;;9.66;100.00;101071.84;10246036;28;20135;-66
2022/05/29 04:56:10;;;;;;;19.05;4.82;;;;;;;9.65;100.00;101071.03;10258587;28;20095;-65
2022/05/29 05:01:07;;;;;;;22.63;5.38;;;;;;;9.71;100.00;101055.34;10264802;28;20127;-66
2022/05/29 05:06:04;;;;;;;15.73;4.65;;;;;;;9.76;100.00;101060.72;10264501;28;20040;-65
2022/05/29 05:11:00;;;;;;;18.83;4.10;;;;;;;9.79;100.00;101060.09;10257805;28;20064;-66
2022/05/29 05:16:04;;;;;;;24.90;4.65;;;;;;;9.79;100.00;101054.63;10251674;28;20069;-66
2022/05/29 05:21:04;;;;;;;21.70;4.95;;;;;;;9.85;100.00;101064.34;10251851;28;20461;-66
2022/05/29 05:26:07;;;;;;;17.35;5.43;;;;;;;9.79;100.00;101060.09;10253465;28;20077;-66
2022/05/29 05:31:03;;;;;;;18.00;3.88;;;;;;;9.75;100.00;101072.75;10261593;28;20083;-65
2022/05/29 05:36:00;;;;;;;21.08;5.00;;;;;;;9.83;100.00;101072.03;10255798;28;20053;-65
2022/05/29 05:40:57;;;;;;;21.00;3.88;;;;;;;9.78;100.00;101058.50;10253392;28;20065;-65
2022/05/29 05:45:53;;;;;;;24.73;4.15;;;;;;;9.79;100.00;101068.28;10254796;28;20168;-66
2022/05/29 05:50:50;;;;;;;15.75;4.40;;;;;;;9.82;100.00;101075.09;10259442;28;20153;-66
2022/05/29 05:55:46;;;;;;;20.02;4.88;;;;;;;9.81;100.00;101068.78;10260585;28;20407;-65
2022/05/29 06:00:43;;;;;;;22.45;4.00;;;;;;;9.80;100.00;101072.66;10246082;28;20468;-65
2022/05/29 06:05:41;;;;;;;18.63;4.38;;;;;;;9.86;100.00;101079.63;10268605;28;20107;-64
2022/05/29 06:10:37;;;;;;;20.38;4.70;;;;;;;9.85;100.00;101075.28;10259581;28;20084;-64
2022/05/29 06:15:34;;;;;;;22.05;5.78;;;;;;;9.84;100.00;101073.66;10248916;28;20147;-65
2022/05/29 06:20:30;;;;;;;16.42;4.63;;;;;;;9.86;100.00;101076.91;10266268;28;20065;-64
2022/05/29 06:25:27;;;;;;;22.38;4.95;;;;;;;9.93;100.00;101081.13;10261503;28;20088;-64
2022/05/29 06:30:23;;;;;;;23.98;5.22;;;;;;;10.08;100.00;101084.38;10257162;28;20136;-65
2022/05/29 06:35:20;;;;;;;24.77;5.30;;;;;;;10.09;100.00;101082.44;10266827;28;20091;-64
2022/05/29 06:40:16;;;;;;;19.65;4.72;;;;;;;10.27;100.00;101086.97;10258612;28;20045;-64
2022/05/29 06:45:13;;;;;;;15.00;4.07;;;;;;;10.41;100.00;101086.16;10272596;28;20162;-65
2022/05/29 06:50:10;;;;;;;16.08;3.63;;;;;;;10.43;100.00;101083.94;10267397;28;20099;-64
2022/05/29 06:55:08;;;;;;;17.30;4.88;;;;;;;10.50;100.00;101084.31;10267043;28;20103;-65
2022/05/29 07:10:47;;;;;;;16.02;3.72;;;;;;;10.67;100.00;101084.44;10259887;28;20132;-68
2022/05/29 07:15:43;;;;;;;10.73;3.13;;;;;;;10.63;100.00;101083.47;10256383;28;20121;-63
2022/05/29 07:20:40;;;;;;;12.25;2.60;;;;;;;10.73;100.00;101083.22;10252298;28;20056;-62
2022/05/29 07:25:36;;;;;;;10.60;3.13;;;;;;;10.80;100.00;101082.00;10252762;28;20132;-61
2022/05/29 07:30:34;;;;;;;12.65;2.60;;;;;;;10.87;100.00;101082.38;10255639;28;20053;-61
2022/05/29 07:35:30;;;;;;;12.40;2.88;;;;;;;10.89;100.00;101080.94;10254597;28;20123;-64
2022/05/29 07:40:27;;;;;;;12.27;2.80;;;;;;;10.93;100.00;101086.56;10262878;28;20073;-66
2022/05/29 07:45:23;;;;;;;13.00;3.33;;;;;;;11.02;100.00;101078.44;10267249;28;20152;-64
2022/05/29 07:50:21;;;;;;;11.32;2.97;;;;;;;11.12;100.00;101078.19;10265355;28;20095;-63
2022/05/29 07:55:19;;;;;;;15.52;3.38;;;;;;;11.19;100.00;101078.56;10264230;28;20072;-63
2022/05/29 08:00:18;;;;;;;16.05;3.30;;;;;;;11.37;100.00;101068.47;10261072;28;20048;-67
2022/05/29 08:05:18;;;;;;;21.10;4.13;;;;;;;11.57;100.00;101067.94;10256602;28;20095;-67
2022/05/29 08:10:16;;;;;;;17.58;4.82;;;;;;;11.72;100.00;101071.38;10252935;28;20140;-67
2022/05/29 08:15:13;;;;;;;12.70;3.50;;;;;;;11.77;100.00;101065.78;10241260;28;20142;-68
2022/05/29 08:20:12;;;;;;;11.45;2.55;;;;;;;11.98;100.00;101069.56;10253203;28;20118;-68
2022/05/29 08:30:38;;;;;;;20.20;4.97;;;;;;;11.83;100.00;101069.97;10252257;28;20045;-68
2022/05/29 08:35:36;;;;;;;18.48;3.78;;;;;;;11.59;100.00;101060.22;10247447;28;20051;-68
2022/05/29 08:40:38;;;;;;;13.27;3.38;;;;;;;11.64;100.00;101072.16;10260096;28;20126;-68
2022/05/29 08:45:35;;;;;;;;;;;;;;;11.57;100.00;101067.94;10238408;28;20067;-68
2022/05/29 08:50:54;;;;;;;16.02;4.65;;;;;;;11.57;100.00;101062.47;10257343;28;19978;-68
2022/05/29 08:55:56;;;;;;;14.32;3.63;;;;;;;11.51;100.00;101061.00;10247913;28;20084;-67
2022/05/29 09:01:04;;;;;;;16.07;4.00;;;;;;;11.64;100.00;101066.69;10253165;28;20111;-68
2022/05/29 09:06:09;;;;;;;15.68;3.78;;;;;;;11.66;100.00;101058.97;10252262;28;20493;-67
2022/05/29 09:11:13;;;;;;;7.95;3.00;;;;;;;11.65;100.00;101057.34;10251691;28;20068;-67
2022/05/29 09:16:17;;;;;;;16.42;4.10;;;;;;;11.74;100.00;101069.13;10250137;28;20056;-68
2022/05/29 09:21:21;;;;;;;17.00;5.72;;;;;;;11.69;100.00;101066.53;10244254;28;20053;-68
2022/05/29 09:26:18;;;;;;;10.00;2.80;;;;;;;11.90;100.00;101053.91;10252832;28;20568;-68
2022/05/29 09:31:24;;;;;;;10.38;3.05;;;;;;;11.95;100.00;101051.03;10250910;28;20037;-68
2022/05/29 09:36:23;;;;;;;12.63;3.28;;;;;;;11.81;100.00;101058.50;10248310;28;20080;-67
2022/05/29 09:41:29;;;;;;;9.40;2.20;;;;;;;11.85;100.00;101059.50;10261100;28;20102;-68
2022/05/29 09:46:32;;;;;;;13.00;3.30;;;;;;;11.80;100.00;101065.13;10262263;28;20088;-68
2022/05/29 09:51:31;;;;;;;9.77;3.33;;;;;;;11.81;100.00;101072.22;10258692;28;20414;-67
2022/05/29 09:56:33;;;;;;;10.70;2.80;;;;;;;11.47;100.00;101076.44;10261349;28;20071;-67
2022/05/29 10:01:40;;;;;;;11.70;2.97;;;;;;;11.53;100.00;101083.41;10261242;28;20044;-67
2022/05/29 10:06:42;;;;;;;7.43;2.08;;;;;;;11.70;100.00;101070.91;10257303;28;20486;-67
2022/05/29 10:11:40;;;;;;;11.10;2.55;;;;;;;11.76;100.00;101069.63;10255873;28;20107;-66
2022/05/29 10:16:38;;;;;;;9.32;2.40;;;;;;;11.97;100.00;101059.75;10255371;28;20498;-67
2022/05/29 10:21:49;;;;;;;11.93;3.30;;;;;;;12.19;100.00;101066.22;10251020;28;20110;-67
2022/05/29 10:26:49;;;;;;;11.23;3.15;;;;;;;12.35;100.00;101064.63;10253314;28;20076;-66
2022/05/29 10:31:49;;;;;;;10.18;2.80;;;;;;;12.30;100.00;101055.75;10253243;28;20208;-66
2022/05/29 10:36:45;;;;;;;14.15;3.90;;;;;;;12.34;100.00;101051.25;10252349;28;20124;-66
2022/05/29 10:41:43;;;;;;;12.40;3.00;;;;;;;12.25;100.00;101058.66;10257653;28;20144;-66
2022/05/29 10:47:01;;;;;;;11.25;3.40;;;;;;;12.47;100.00;101049.47;10252332;28;20139;-66
2022/05/29 10:52:16;;;;;;;10.95;1.98;;;;;;;12.50;100.00;101048.81;10241256;28;20053;-65
2022/05/29 10:57:35;;;;;;;12.23;2.55;;;;;;;12.32;100.00;101053.50;10249341;28;20091;-67
2022/05/29 11:08:46;;;;;;;13.88;2.13;;;;;;;12.34;100.00;101052.03;10265204;28;20509;-66
2022/05/29 11:14:05;;;;;;;9.65;2.45;;;;;;;12.23;100.00;101050.75;10264228;28;20084;-66
2022/05/29 11:19:34;;;;;;;9.20;2.00;;;;;;;12.37;100.00;101045.94;10261933;28;20076;-66
2022/05/29 11:25:12;;;;;;;6.28;1.60;;;;;;;12.25;100.00;101036.72;10263106;28;20068;-66
2022/05/29 11:30:41;;;;;;;8.07;1.90;;;;;;;12.36;100.00;101033.34;10260144;28;20099;-66
2022/05/29 11:36:17;;;;;;;9.00;2.00;;;;;;;12.53;100.00;101038.03;10255116;28;20143;-66
2022/05/29 11:41:35;;;;;;;9.63;3.10;;;;;;;12.50;100.00;101035.13;10246476;28;20551;-66
2022/05/29 11:52:02;;;;;;;10.15;2.13;;;;;;;12.47;100.00;101033.03;10251665;28;20081;-66
2022/05/29 11:57:15;;;;;;;6.68;1.35;;;;;;;12.48;100.00;101024.47;10249232;28;20049;-66
2022/05/29 12:02:49;;;;;;;10.55;2.20;;;;;;;12.53;100.00;101026.22;10250368;28;20076;-66
2022/05/29 12:07:58;;;;;;;9.73;2.08;;;;;;;12.42;100.00;101021.09;10255999;28;20578;-64
2022/05/29 12:13:03;;;;;;;8.40;2.10;;;;;;;12.51;100.00;101017.53;10255854;28;20084;-63
2022/05/29 12:18:04;;;;;;;7.40;1.58;;;;;;;12.53;100.00;101012.53;10251930;28;20132;-64
2022/05/29 12:23:33;;;;;;;12.13;1.55;;;;;;;12.52;100.00;101013.66;10253733;28;20131;-64
2022/05/29 12:28:52;;;;;;;11.73;2.15;;;;;;;12.59;100.00;101013.97;10241691;28;20128;-64
2022/05/29 12:33:49;;;;;;;9.27;1.92;;;;;;;12.59;100.00;101011.22;10247750;28;20695;-64
2022/05/29 12:38:48;;;;;;;8.80;1.48;;;;;;;12.66;100.00;101014.28;10243084;28;20555;-64
2022/05/29 12:43:53;;;;;;;12.68;3.35;;;;;;;12.71;100.00;101014.13;10243067;28;20486;-64
2022/05/29 12:48:53;;;;;;;10.98;3.05;;;;;;;12.72;100.00;101018.50;10236846;28;20126;-64
2022/05/29 12:54:17;;;;;;;8.00;1.67;;;;;;;12.58;100.00;101012.38;10240143;28;20045;-64
2022/05/29 12:59:31;;;;;;;7.13;1.73;;;;;;;12.69;100.00;101013.63;10245014;28;20099;-64
2022/05/29 13:04:33;;;;;;;11.27;1.65;;;;;;;12.77;100.00;101004.59;10244230;28;20037;-64
2022/05/29 13:09:35;;;;;;;10.70;1.80;;;;;;;12.73;100.00;101009.13;10242084;28;20065;-64
2022/05/29 13:14:33;;;;;;;6.07;1.57;;;;;;;12.69;100.00;101010.88;10237584;28;20045;-64
2022/05/29 13:20:08;;;;;;;8.60;2.40;;;;;;;12.63;100.00;101012.22;10262526;28;20509;-64
2022/05/29 13:25:05;;;;;;;6.75;1.52;;;;;;;12.76;100.00;101016.69;10255801;28;20049;-64
2022/05/29 13:30:05;;;;;;;7.43;1.67;;;;;;;12.84;100.00;101013.13;10257267;28;20081;-65
2022/05/29 13:35:04;;;;;;;8.35;1.73;;;;;;;12.64;100.00;101013.81;10260857;28;20132;-63
2022/05/29 13:40:04;;;;;;;9.02;1.40;;;;;;;12.55;100.00;101013.00;10252756;28;20457;-64
2022/05/29 13:45:23;;;;;;;10.98;1.95;;;;;;;12.54;100.00;101023.19;10258527;28;20120;-63
2022/05/29 13:50:27;;;;;;;6.88;1.58;;;;;;;12.66;100.00;101011.53;10265538;28;20224;-63
2022/05/29 13:55:30;;;;;;;8.57;2.13;;;;;;;12.70;100.00;101015.25;10263544;28;20087;-64
2022/05/29 14:06:17;;;;;;;8.13;1.50;;;;;;;12.75;100.00;101012.34;10255861;28;20051;-64
2022/05/29 14:11:15;;;;;;;8.00;1.80;;;;;;;12.96;100.00;101008.91;10258485;28;20786;-65
2022/05/29 14:16:24;;;;;;;5.65;1.30;;;;;;;13.15;100.00;100987.38;10260520;28;20045;-65
2022/05/29 14:21:40;;;;;;;8.70;2.17;;;;;;;13.12;100.00;100993.53;10257827;28;20683;-64
2022/05/29 14:26:52;;;;;;;5.88;1.40;;;;;;;13.15;100.00;100987.38;10254572;28;20049;-66
2022/05/29 14:32:07;;;;;;;8.25;1.48;;;;;;;12.94;100.00;100976.31;10258041;28;20073;-64
2022/05/29 14:37:32;;;;;;;7.38;1.27;;;;;;;13.00;100.00;100980.50;10253444;28;20041;-65
2022/05/29 14:42:38;;;;;;;8.23;1.60;;;;;;;13.02;100.00;100982.91;10242140;28;20049;-65
2022/05/29 14:47:47;;;;;;;6.63;1.77;;;;;;;13.25;100.00;100987.03;10248243;28;21841;-65
2022/05/29 14:53:16;;;;;;;5.13;1.60;;;;;;;12.99;100.00;100983.56;10253829;28;20580;-67
2022/05/29 14:58:29;;;;;;;12.27;2.00;;;;;;;12.96;100.00;100985.00;10226748;28;20040;-66
2022/05/29 15:03:29;;;;;;;9.98;1.70;;;;;;;13.00;100.00;100982.44;10241235;28;20064;-66
2022/05/29 15:14:05;;;;;;;10.80;2.30;;;;;;;13.06;100.00;100983.84;10259460;28;20045;-65
2022/05/29 15:19:20;;;;;;;13.10;2.20;;;;;;;13.02;100.00;100966.44;10261860;28;20076;-65
2022/05/29 15:24:25;;;;;;;12.85;1.67;;;;;;;13.12;100.00;100977.06;10248376;28;20091;-67
2022/05/29 15:29:29;;;;;;;15.02;1.88;;;;;;;12.90;100.00;100974.53;10256433;28;20045;-67
2022/05/29 15:34:42;;;;;;;10.27;2.00;;;;;;;12.80;100.00;100981.97;10248343;28;20040;-67
2022/05/29 15:40:12;;;;;;;8.15;2.00;;;;;;;12.56;100.00;100981.72;10262428;28;20055;-67
2022/05/29 15:45:38;;;;;;;5.75;1.40;;;;;;;12.71;100.00;100972.16;10259667;28;20359;-67
2022/05/29 15:50:52;;;;;;;7.38;1.67;;;;;;;12.63;100.00;100987.50;10260142;28;20514;-62
2022/05/29 15:56:03;;;;;;;7.93;1.67;;;;;;;12.67;100.00;100969.28;10261966;28;20625;-66
2022/05/29 16:01:12;;;;;;;11.77;1.92;;;;;;;12.69;100.00;100972.47;10264513;28;20508;-64
2022/05/29 16:06:11;;;;;;;10.40;2.20;;;;;;;12.48;100.00;100966.06;10259803;28;20045;-67
2022/05/29 16:11:28;;;;;;;11.30;2.13;;;;;;;12.53;100.00;100963.97;10263147;28;20048;-63
2022/05/29 16:16:28;;;;;;;10.32;2.20;;;;;;;12.46;100.00;100971.88;10256084;28;20483;-63
2022/05/29 16:21:33;;;;;;;19.80;3.33;;;;;;;12.34;100.00;100975.25;10256661;28;20494;-63
2022/05/29 16:26:36;;;;;;;12.07;2.15;;;;;;;12.28;100.00;100971.09;10254876;28;20122;-65
2022/05/29 16:31:46;;;;;;;19.88;3.20;;;;;;;12.26;100.00;100978.84;10253710;28;20153;-64
2022/05/29 16:53:13;;;;;;;15.98;2.20;;;;;;;12.43;100.00;100962.34;10055853;28;20465;-67
2022/05/29 16:58:34;;;;;;;19.00;3.00;;;;;;;12.39;100.00;100961.41;10205771;28;20045;-66
2022/05/29 17:03:56;;;;;;;16.85;3.10;;;;;;;12.27;100.00;100963.97;10247929;28;20045;-66
2022/05/29 17:09:07;;;;;;;18.95;3.13;;;;;;;12.35;100.00;100962.38;10248912;28;20138;-66
2022/05/29 17:14:10;;;;;;;23.95;3.70;;;;;;;12.33;100.00;100957.22;10245125;28;20126;-66
2022/05/29 17:19:07;;;;;;;;;;;;;;;12.23;100.00;100952.06;10241873;28;20141;-66
2022/05/29 17:24:21;;;;;;;18.35;3.08;;;;;;;12.14;100.00;100962.22;10226157;28;20380;-66
2022/05/29 17:29:36;;;;;;;13.57;2.10;;;;;;;12.17;100.00;100956.09;10242001;28;20052;-66
2022/05/29 17:34:36;;;;;;;16.20;2.67;;;;;;;12.23;100.00;100957.56;10247025;28;20136;-66
2022/05/29 17:39:44;;;;;;;19.05;3.65;;;;;;;12.16;100.00;100949.81;10243599;28;20048;-66
2022/05/29 17:44:44;;;;;;;19.73;3.25;;;;;;;12.05;100.00;100950.47;10242941;28;20048;-66
2022/05/29 17:50:04;;;;;;;17.23;3.15;;;;;;;12.07;100.00;100950.91;10248224;28;20045;-65
2022/05/29 17:55:05;;;;;;;13.07;3.13;;;;;;;12.12;100.00;100953.53;10254213;28;20059;-65
2022/05/29 18:00:09;;;;;;;15.88;2.70;;;;;;;12.08;100.00;100963.50;10259023;28;20055;-65
2022/05/29 18:05:07;;;;;;;19.88;2.38;;;;;;;12.12;100.00;100967.22;10256616;28;20131;-66
2022/05/29 18:10:04;;;;;;;12.25;2.85;;;;;;;12.13;100.00;100963.34;10234290;28;20049;-67
2022/05/29 18:15:00;;;;;;;17.88;2.92;;;;;;;12.04;100.00;100959.78;10250358;28;20095;-66
2022/05/29 18:19:58;;;;;;;15.75;2.63;;;;;;;11.91;100.00;100962.38;10261172;28;20506;-66
2022/05/29 18:24:55;;;;;;;18.35;2.88;;;;;;;11.87;100.00;100966.88;10254944;28;20124;-66
2022/05/29 18:29:57;;;;;;;;;;;;;;;11.70;100.00;100973.09;10262085;28;20059;-66
2022/05/29 18:34:54;;;;;;;13.45;2.15;;;;;;;11.63;100.00;100977.41;10258003;28;20035;-66
2022/05/29 18:39:50;;;;;;;13.20;2.20;;;;;;;11.59;100.00;100978.06;10231651;28;20392;-65
2022/05/29 18:44:47;;;;;;;14.85;2.38;;;;;;;11.63;100.00;100974.69;10242702;28;20495;-66
2022/05/29 18:49:43;;;;;;;10.60;2.55;;;;;;;11.68;100.00;100980.03;10254344;28;20820;-65
2022/05/29 18:54:40;;;;;;;12.27;2.30;;;;;;;11.59;100.00;100983.53;10244619;28;20441;-66
2022/05/29 18:59:37;;;;;;;14.02;3.08;;;;;;;11.53;100.00;100984.81;10248567;28;20049;-65
2022/05/29 19:04:36;;;;;;;12.40;2.75;;;;;;;11.52;100.00;100983.19;10243591;28;20127;-66
2022/05/29 19:09:32;;;;;;;11.50;1.52;;;;;;;11.36;100.00;100990.22;10250936;28;20048;-66
2022/05/29 19:14:29;;;;;;;16.38;2.20;;;;;;;11.22;100.00;100995.81;10260802;28;20049;-65
2022/05/29 19:19:27;;;;;;;15.45;2.22;;;;;;;11.14;100.00;100989.19;10257537;28;20075;-66
2022/05/29 19:24:24;;;;;;;11.65;1.85;;;;;;;11.15;100.00;100996.25;10248561;28;20152;-66
2022/05/29 19:29:20;;;;;;;13.07;1.63;;;;;;;11.03;100.00;100993.31;10248058;28;20100;-66
2022/05/29 19:34:17;;;;;;;14.80;2.80;;;;;;;11.04;100.00;100989.44;10247069;28;20095;-65
2022/05/29 19:39:15;;;;;;;13.48;2.53;;;;;;;11.04;100.00;100989.44;10246144;28;20098;-66
2022/05/29 19:44:12;;;;;;;14.13;2.63;;;;;;;11.12;100.00;100991.41;10250377;28;20446;-66
2022/05/29 19:49:08;;;;;;;12.80;2.67;;;;;;;11.14;100.00;100994.66;10238157;28;20065;-65
2022/05/29 19:54:05;;;;;;;12.73;2.47;;;;;;;11.12;100.00;100996.09;10257196;28;20127;-65
2022/05/29 19:59:04;;;;;;;17.30;4.60;;;;;;;11.12;100.00;101005.09;10257990;28;20096;-66
2022/05/29 20:04:00;;;;;;;10.05;1.52;;;;;;;11.09;100.00;100999.44;10245230;28;20044;-64
2022/05/29 20:09:00;;;;;;;9.23;1.40;;;;;;;11.03;100.00;100997.97;10254190;28;20045;-64
2022/05/29 20:13:59;;;;;;;13.27;1.90;;;;;;;11.04;100.00;100999.56;10250517;28;20133;-64
2022/05/29 20:18:57;;;;;;;11.68;2.25;;;;;;;11.03;100.00;100997.97;10256793;28;20045;-64
2022/05/29 20:23:56;;;;;;;12.18;2.08;;;;;;;10.91;100.00;101004.03;10252458;28;20075;-64
2022/05/29 20:28:52;;;;;;;13.65;1.92;;;;;;;10.91;100.00;101002.09;10235630;28;20517;-62
2022/05/29 20:33:49;;;;;;;8.68;1.67;;;;;;;10.92;100.00;100997.44;10257466;28;20110;-63
2022/05/29 20:38:46;;;;;;;10.70;1.45;;;;;;;10.87;100.00;101001.09;10256458;28;20083;-62
2022/05/29 20:43:45;;;;;;;6.95;1.52;;;;;;;10.91;100.00;100995.81;10260404;28;20079;-63
2022/05/29 20:48:41;;;;;;;11.20;1.90;;;;;;;10.89;100.00;101003.53;10260846;28;20076;-63
2022/05/29 20:53:38;;;;;;;14.68;3.03;;;;;;;10.82;100.00;100997.69;10254080;28;20136;-64
2022/05/29 20:58:35;;;;;;;11.98;1.70;;;;;;;10.80;100.00;101013.63;10253852;28;20372;-61
2022/05/29 21:03:32;;;;;;;11.88;2.05;;;;;;;10.77;100.00;101011.47;10255331;28;20072;-65
2022/05/29 21:08:28;;;;;;;11.43;2.17;;;;;;;10.77;100.00;101011.47;10253614;28;20489;-65
2022/05/29 21:13:25;;;;;;;11.43;1.92;;;;;;;10.68;100.00;101014.97;10259345;28;20085;-65
2022/05/29 21:18:21;;;;;;;13.73;1.88;;;;;;;10.63;100.00;101023.31;10256583;28;20299;-65
2022/05/29 21:23:18;;;;;;;21.58;2.53;;;;;;;10.61;100.00;101022.00;10260825;28;20072;-63
2022/05/29 21:28:14;;;;;;;8.85;1.70;;;;;;;10.56;100.00;101017.47;10255586;28;20109;-63
2022/05/29 21:33:11;;;;;;;10.77;2.20;;;;;;;10.50;100.00;101021.44;10264632;28;20129;-63
2022/05/29 21:38:07;;;;;;;12.95;3.47;;;;;;;10.51;100.00;101017.56;10265588;28;20118;-64
2022/05/29 21:43:07;;;;;;;20.20;2.28;;;;;;;10.48;100.00;101021.72;10254243;28;20244;-63
2022/05/29 21:48:05;;;;;;;14.60;2.25;;;;;;;10.45;100.00;101027.84;10266487;28;20426;-63
2022/05/29 21:53:01;;;;;;;10.00;1.60;;;;;;;10.51;100.00;101028.50;10256854;28;20075;-63
2022/05/29 21:57:58;;;;;;;13.73;1.70;;;;;;;10.33;100.00;101033.03;10259518;28;20134;-62
2022/05/29 22:02:54;;;;;;;17.50;1.48;;;;;;;10.32;100.00;101034.94;10267055;28;20091;-63
2022/05/29 22:07:51;;;;;;;8.90;1.67;;;;;;;10.19;100.00;101043.97;10261360;28;20422;-64
2022/05/29 22:12:47;;;;;;;14.70;1.73;;;;;;;10.17;100.00;101039.94;10262124;28;20083;-64
2022/05/29 22:17:44;;;;;;;20.85;3.60;;;;;;;10.22;100.00;101040.63;10262439;28;20098;-65
2022/05/29 22:22:42;;;;;;;14.10;1.65;;;;;;;10.06;100.00;101042.88;10240195;28;20124;-65
2022/05/29 22:27:38;;;;;;;9.27;1.50;;;;;;;10.01;100.00;101039.47;10264993;28;20594;-65
2022/05/29 22:33:01;;;;;;;13.90;2.33;;;;;;;10.06;100.00;101042.06;10252911;28;20072;-65
2022/05/29 22:37:58;;;;;;;9.67;1.33;;;;;;;9.98;100.00;101040.06;10240410;28;20118;-65
2022/05/29 22:42:54;;;;;;;10.32;1.38;;;;;;;9.98;100.00;101045.50;10250167;28;20084;-65
2022/05/29 22:48:25;;;;;;;13.30;1.60;;;;;;;10.01;100.00;101034.00;10256028;28;20590;-61
2022/05/29 22:53:33;;;;;;;9.90;1.85;;;;;;;10.09;100.00;101039.56;10259858;28;20128;-61
2022/05/29 22:58:30;;;;;;;9.13;1.60;;;;;;;10.08;100.00;101046.13;10254058;28;20069;-61
2022/05/29 23:03:45;;;;;;;10.20;1.73;;;;;;;10.11;100.00;101039.22;10263498;28;20068;-61
2022/05/29 23:08:44;;;;;;;10.98;1.63;;;;;;;10.02;100.00;101046.53;10248916;28;20072;-61
2022/05/29 23:13:40;;;;;;;11.70;1.50;;;;;;;10.08;100.00;101039.84;10259898;28;20049;-64
2022/05/29 23:18:36;;;;;;;11.10;1.55;;;;;;;10.03;100.00;101038.03;10254757;28;20069;-63
2022/05/29 23:23:34;;;;;;;11.25;1.30;;;;;;;10.00;100.00;101032.34;10265694;28;20067;-62
2022/05/29 23:28:31;;;;;;;8.40;1.23;;;;;;;10.01;100.00;101034.78;10266180;28;20041;-62
2022/05/29 23:33:30;;;;;;;9.02;1.23;;;;;;;9.92;100.00;101036.63;10258426;28;20396;-62
2022/05/29 23:38:26;;;;;;;9.68;1.50;;;;;;;10.03;100.00;101031.78;10259789;28;20494;-63
2022/05/29 23:43:23;;;;;;;14.00;1.50;;;;;;;10.03;100.00;101027.09;10255114;28;20132;-62
2022/05/29 23:48:24;;;;;;;9.90;1.60;;;;;;;10.02;100.00;101024.66;10254456;28;20060;-62
2022/05/29 23:53:20;;;;;;;11.73;1.52;;;;;;;9.96;100.00;101020.44;10255301;28;20069;-62